sensor_id;sensor_type;location;lat;lon;timestamp;P1;durP1;ratioP1;P2;durP2;ratioP2
30872;SDS011;17579;42.690;2.586;2023-04-03T00:00:28;1.48;;;1.33;;
30872;SDS011;17579;42.690;2.586;2023-04-03T00:02:56;2.20;;;1.33;;
30872;SDS011;17579;42.690;2.586;2023-04-03T00:05:22;2.63;;;1.50;;
30872;SDS011;17579;42.690;2.586;2023-04-03T00:07:55;1.55;;;1.40;;
30872;SDS011;17579;42.690;2.586;2023-04-03T00:10:26;1.42;;;1.27;;
30872;SDS011;17579;42.690;2.586;2023-04-03T00:12:52;1.73;;;1.05;;
30872;SDS011;17579;42.690;2.586;2023-04-03T00:15:23;1.00;;;0.90;;
30872;SDS011;17579;42.690;2.586;2023-04-03T00:17:56;1.48;;;1.17;;
30872;SDS011;17579;42.690;2.586;2023-04-03T00:20:24;1.20;;;1.10;;
30872;SDS011;17579;42.690;2.586;2023-04-03T00:22:52;2.13;;;1.05;;
30872;SDS011;17579;42.690;2.586;2023-04-03T00:25:19;1.10;;;1.00;;
30872;SDS011;17579;42.690;2.586;2023-04-03T00:27:45;1.40;;;1.10;;
30872;SDS011;17579;42.690;2.586;2023-04-03T00:30:20;2.70;;;1.15;;
30872;SDS011;17579;42.690;2.586;2023-04-03T00:32:51;1.38;;;0.82;;
30872;SDS011;17579;42.690;2.586;2023-04-03T00:35:26;1.00;;;0.90;;
30872;SDS011;17579;42.690;2.586;2023-04-03T00:37:53;1.02;;;0.90;;
30872;SDS011;17579;42.690;2.586;2023-04-03T00:40:26;1.52;;;1.20;;
30872;SDS011;17579;42.690;2.586;2023-04-03T00:42:58;1.33;;;0.82;;
30872;SDS011;17579;42.690;2.586;2023-04-03T00:45:35;1.40;;;1.08;;
30872;SDS011;17579;42.690;2.586;2023-04-03T00:48:04;1.95;;;1.00;;
30872;SDS011;17579;42.690;2.586;2023-04-03T00:50:40;1.75;;;0.82;;
30872;SDS011;17579;42.690;2.586;2023-04-03T00:53:08;2.88;;;0.90;;
30872;SDS011;17579;42.690;2.586;2023-04-03T00:55:42;2.40;;;1.23;;
30872;SDS011;17579;42.690;2.586;2023-04-03T00:58:09;1.20;;;1.08;;
30872;SDS011;17579;42.690;2.586;2023-04-03T01:00:41;1.35;;;1.20;;
30872;SDS011;17579;42.690;2.586;2023-04-03T01:03:11;1.20;;;1.10;;
30872;SDS011;17579;42.690;2.586;2023-04-03T01:05:43;1.33;;;1.23;;
30872;SDS011;17579;42.690;2.586;2023-04-03T01:08:17;1.40;;;1.20;;
30872;SDS011;17579;42.690;2.586;2023-04-03T01:10:46;4.95;;;1.40;;
30872;SDS011;17579;42.690;2.586;2023-04-03T01:15:39;1.95;;;1.20;;
30872;SDS011;17579;42.690;2.586;2023-04-03T01:18:11;1.40;;;1.17;;
30872;SDS011;17579;42.690;2.586;2023-04-03T01:20:43;1.20;;;1.10;;
30872;SDS011;17579;42.690;2.586;2023-04-03T01:23:37;1.13;;;1.10;;
30872;SDS011;17579;42.690;2.586;2023-04-03T01:26:28;1.52;;;1.05;;
30872;SDS011;17579;42.690;2.586;2023-04-03T01:28:58;0.98;;;0.98;;
30872;SDS011;17579;42.690;2.586;2023-04-03T01:34:11;1.33;;;0.98;;
30872;SDS011;17579;42.690;2.586;2023-04-03T01:36:36;1.10;;;0.90;;
30872;SDS011;17579;42.690;2.586;2023-04-03T01:39:02;0.95;;;0.90;;
30872;SDS011;17579;42.690;2.586;2023-04-03T01:41:30;1.30;;;1.20;;
30872;SDS011;17579;42.690;2.586;2023-04-03T01:44:01;1.17;;;1.08;;
30872;SDS011;17579;42.690;2.586;2023-04-03T01:46:30;0.90;;;0.90;;
30872;SDS011;17579;42.690;2.586;2023-04-03T01:48:56;1.70;;;1.10;;
30872;SDS011;17579;42.690;2.586;2023-04-03T01:51:33;1.13;;;0.73;;
30872;SDS011;17579;42.690;2.586;2023-04-03T01:53:59;1.55;;;0.80;;
30872;SDS011;17579;42.690;2.586;2023-04-03T01:56:28;0.80;;;0.70;;
30872;SDS011;17579;42.690;2.586;2023-04-03T01:58:56;0.80;;;0.80;;
30872;SDS011;17579;42.690;2.586;2023-04-03T02:01:25;1.50;;;0.88;;
30872;SDS011;17579;42.690;2.586;2023-04-03T02:03:54;2.92;;;0.90;;
30872;SDS011;17579;42.690;2.586;2023-04-03T02:06:29;0.77;;;0.77;;
30872;SDS011;17579;42.690;2.586;2023-04-03T02:08:57;0.60;;;0.60;;
30872;SDS011;17579;42.690;2.586;2023-04-03T02:11:23;0.60;;;0.60;;
30872;SDS011;17579;42.690;2.586;2023-04-03T02:13:49;0.60;;;0.60;;
30872;SDS011;17579;42.690;2.586;2023-04-03T02:16:14;1.40;;;0.60;;
30872;SDS011;17579;42.690;2.586;2023-04-03T02:18:43;0.60;;;0.60;;
30872;SDS011;17579;42.690;2.586;2023-04-03T02:21:17;0.50;;;0.50;;
30872;SDS011;17579;42.690;2.586;2023-04-03T02:23:46;0.50;;;0.50;;
30872;SDS011;17579;42.690;2.586;2023-04-03T02:26:13;0.93;;;0.70;;
30872;SDS011;17579;42.690;2.586;2023-04-03T02:29:00;0.57;;;0.57;;
30872;SDS011;17579;42.690;2.586;2023-04-03T02:31:26;0.43;;;0.43;;
30872;SDS011;17579;42.690;2.586;2023-04-03T02:33:52;0.30;;;0.30;;
30872;SDS011;17579;42.690;2.586;2023-04-03T02:36:40;0.55;;;0.43;;
30872;SDS011;17579;42.690;2.586;2023-04-03T02:39:09;0.30;;;0.30;;
30872;SDS011;17579;42.690;2.586;2023-04-03T02:41:40;0.35;;;0.35;;
30872;SDS011;17579;42.690;2.586;2023-04-03T02:44:06;0.82;;;0.32;;
30872;SDS011;17579;42.690;2.586;2023-04-03T02:46:37;0.28;;;0.28;;
30872;SDS011;17579;42.690;2.586;2023-04-03T02:49:06;0.68;;;0.38;;
30872;SDS011;17579;42.690;2.586;2023-04-03T02:51:31;0.38;;;0.32;;
30872;SDS011;17579;42.690;2.586;2023-04-03T02:53:57;1.80;;;0.63;;
30872;SDS011;17579;42.690;2.586;2023-04-03T02:56:23;0.47;;;0.30;;
30872;SDS011;17579;42.690;2.586;2023-04-03T02:58:58;0.43;;;0.43;;
30872;SDS011;17579;42.690;2.586;2023-04-03T03:01:27;0.50;;;0.50;;
30872;SDS011;17579;42.690;2.586;2023-04-03T03:04:02;0.50;;;0.50;;
30872;SDS011;17579;42.690;2.586;2023-04-03T03:06:37;2.15;;;0.55;;
30872;SDS011;17579;42.690;2.586;2023-04-03T03:09:06;0.73;;;0.73;;
30872;SDS011;17579;42.690;2.586;2023-04-03T03:11:32;0.50;;;0.40;;
30872;SDS011;17579;42.690;2.586;2023-04-03T03:14:00;0.60;;;0.60;;
30872;SDS011;17579;42.690;2.586;2023-04-03T03:16:29;0.63;;;0.60;;
30872;SDS011;17579;42.690;2.586;2023-04-03T03:18:58;0.70;;;0.70;;
30872;SDS011;17579;42.690;2.586;2023-04-03T03:21:27;1.83;;;0.70;;
30872;SDS011;17579;42.690;2.586;2023-04-03T03:23:59;0.85;;;0.60;;
30872;SDS011;17579;42.690;2.586;2023-04-03T03:26:47;0.70;;;0.70;;
30872;SDS011;17579;42.690;2.586;2023-04-03T03:32:02;0.75;;;0.75;;
30872;SDS011;17579;42.690;2.586;2023-04-03T03:34:39;1.45;;;0.80;;
30872;SDS011;17579;42.690;2.586;2023-04-03T03:37:14;0.60;;;0.50;;
30872;SDS011;17579;42.690;2.586;2023-04-03T03:39:49;0.68;;;0.63;;
30872;SDS011;17579;42.690;2.586;2023-04-03T03:42:28;1.10;;;0.77;;
30872;SDS011;17579;42.690;2.586;2023-04-03T03:44:56;1.33;;;0.80;;
30872;SDS011;17579;42.690;2.586;2023-04-03T03:47:25;1.00;;;0.90;;
30872;SDS011;17579;42.690;2.586;2023-04-03T03:49:51;1.00;;;0.90;;
30872;SDS011;17579;42.690;2.586;2023-04-03T03:52:19;1.50;;;0.80;;
30872;SDS011;17579;42.690;2.586;2023-04-03T03:54:47;1.95;;;0.80;;
30872;SDS011;17579;42.690;2.586;2023-04-03T03:57:18;0.70;;;0.70;;
30872;SDS011;17579;42.690;2.586;2023-04-03T04:00:07;2.38;;;0.90;;
30872;SDS011;17579;42.690;2.586;2023-04-03T04:02:46;0.90;;;0.60;;
30872;SDS011;17579;42.690;2.586;2023-04-03T04:05:21;0.85;;;0.80;;
30872;SDS011;17579;42.690;2.586;2023-04-03T04:07:52;0.60;;;0.60;;
30872;SDS011;17579;42.690;2.586;2023-04-03T04:10:51;1.13;;;0.68;;
30872;SDS011;17579;42.690;2.586;2023-04-03T04:13:17;1.10;;;0.95;;
30872;SDS011;17579;42.690;2.586;2023-04-03T04:15:43;1.10;;;0.70;;
30872;SDS011;17579;42.690;2.586;2023-04-03T04:18:33;0.93;;;0.70;;
30872;SDS011;17579;42.690;2.586;2023-04-03T04:21:06;1.15;;;0.98;;
30872;SDS011;17579;42.690;2.586;2023-04-03T04:23:32;0.68;;;0.68;;
30872;SDS011;17579;42.690;2.586;2023-04-03T04:25:58;0.93;;;0.65;;
30872;SDS011;17579;42.690;2.586;2023-04-03T04:28:26;0.68;;;0.68;;
30872;SDS011;17579;42.690;2.586;2023-04-03T04:30:52;0.70;;;0.70;;
30872;SDS011;17579;42.690;2.586;2023-04-03T04:33:18;1.13;;;0.80;;
30872;SDS011;17579;42.690;2.586;2023-04-03T04:35:47;0.77;;;0.70;;
30872;SDS011;17579;42.690;2.586;2023-04-03T04:38:13;0.75;;;0.70;;
30872;SDS011;17579;42.690;2.586;2023-04-03T04:40:39;0.80;;;0.80;;
30872;SDS011;17579;42.690;2.586;2023-04-03T04:43:06;1.30;;;1.15;;
30872;SDS011;17579;42.690;2.586;2023-04-03T04:45:39;1.55;;;0.77;;
30872;SDS011;17579;42.690;2.586;2023-04-03T04:48:10;0.82;;;0.70;;
30872;SDS011;17579;42.690;2.586;2023-04-03T04:50:46;0.63;;;0.63;;
30872;SDS011;17579;42.690;2.586;2023-04-03T04:53:12;0.70;;;0.70;;
30872;SDS011;17579;42.690;2.586;2023-04-03T04:55:47;0.63;;;0.63;;
30872;SDS011;17579;42.690;2.586;2023-04-03T04:58:33;0.52;;;0.52;;
30872;SDS011;17579;42.690;2.586;2023-04-03T05:01:01;0.50;;;0.50;;
30872;SDS011;17579;42.690;2.586;2023-04-03T05:03:34;0.40;;;0.40;;
30872;SDS011;17579;42.690;2.586;2023-04-03T05:06:03;0.40;;;0.40;;
30872;SDS011;17579;42.690;2.586;2023-04-03T05:08:30;0.40;;;0.40;;
30872;SDS011;17579;42.690;2.586;2023-04-03T05:10:58;0.40;;;0.40;;
30872;SDS011;17579;42.690;2.586;2023-04-03T05:13:24;0.38;;;0.38;;
30872;SDS011;17579;42.690;2.586;2023-04-03T05:18:39;0.30;;;0.30;;
30872;SDS011;17579;42.690;2.586;2023-04-03T05:21:14;0.57;;;0.40;;
30872;SDS011;17579;42.690;2.586;2023-04-03T05:23:43;0.55;;;0.55;;
30872;SDS011;17579;42.690;2.586;2023-04-03T05:26:09;0.65;;;0.30;;
30872;SDS011;17579;42.690;2.586;2023-04-03T05:28:38;0.40;;;0.40;;
30872;SDS011;17579;42.690;2.586;2023-04-03T05:31:04;0.40;;;0.40;;
30872;SDS011;17579;42.690;2.586;2023-04-03T05:33:32;0.68;;;0.40;;
30872;SDS011;17579;42.690;2.586;2023-04-03T05:36:01;0.52;;;0.47;;
30872;SDS011;17579;42.690;2.586;2023-04-03T05:38:30;0.40;;;0.28;;
30872;SDS011;17579;42.690;2.586;2023-04-03T05:40:59;0.40;;;0.40;;
30872;SDS011;17579;42.690;2.586;2023-04-03T05:43:32;0.20;;;0.20;;
30872;SDS011;17579;42.690;2.586;2023-04-03T05:45:59;0.63;;;0.45;;
30872;SDS011;17579;42.690;2.586;2023-04-03T05:48:43;0.22;;;0.22;;
30872;SDS011;17579;42.690;2.586;2023-04-03T05:51:14;0.28;;;0.28;;
30872;SDS011;17579;42.690;2.586;2023-04-03T05:53:44;0.38;;;0.38;;
30872;SDS011;17579;42.690;2.586;2023-04-03T05:56:12;0.40;;;0.40;;
30872;SDS011;17579;42.690;2.586;2023-04-03T05:58:44;0.77;;;0.40;;
30872;SDS011;17579;42.690;2.586;2023-04-03T06:01:12;0.35;;;0.35;;
30872;SDS011;17579;42.690;2.586;2023-04-03T06:03:41;0.85;;;0.30;;
30872;SDS011;17579;42.690;2.586;2023-04-03T06:06:19;0.13;;;0.13;;
30872;SDS011;17579;42.690;2.586;2023-04-03T06:08:47;0.10;;;0.10;;
30872;SDS011;17579;42.690;2.586;2023-04-03T06:11:36;0.30;;;0.30;;
30872;SDS011;17579;42.690;2.586;2023-04-03T06:16:49;0.10;;;0.10;;
30872;SDS011;17579;42.690;2.586;2023-04-03T06:19:17;0.20;;;0.20;;
30872;SDS011;17579;42.690;2.586;2023-04-03T06:21:49;0.10;;;0.10;;
30872;SDS011;17579;42.690;2.586;2023-04-03T06:24:18;0.38;;;0.30;;
30872;SDS011;17579;42.690;2.586;2023-04-03T06:26:52;0.50;;;0.30;;
30872;SDS011;17579;42.690;2.586;2023-04-03T06:29:18;0.20;;;0.20;;
30872;SDS011;17579;42.690;2.586;2023-04-03T06:31:48;0.20;;;0.20;;
30872;SDS011;17579;42.690;2.586;2023-04-03T06:34:22;0.28;;;0.28;;
30872;SDS011;17579;42.690;2.586;2023-04-03T06:36:56;0.30;;;0.30;;
30872;SDS011;17579;42.690;2.586;2023-04-03T06:39:31;0.20;;;0.20;;
30872;SDS011;17579;42.690;2.586;2023-04-03T06:41:57;0.40;;;0.40;;
30872;SDS011;17579;42.690;2.586;2023-04-03T06:44:26;0.30;;;0.30;;
30872;SDS011;17579;42.690;2.586;2023-04-03T06:47:00;0.30;;;0.30;;
30872;SDS011;17579;42.690;2.586;2023-04-03T06:49:26;0.38;;;0.35;;
30872;SDS011;17579;42.690;2.586;2023-04-03T06:51:58;0.50;;;0.50;;
30872;SDS011;17579;42.690;2.586;2023-04-03T06:54:31;0.47;;;0.40;;
30872;SDS011;17579;42.690;2.586;2023-04-03T06:57:17;0.35;;;0.35;;
30872;SDS011;17579;42.690;2.586;2023-04-03T06:59:43;0.22;;;0.22;;
30872;SDS011;17579;42.690;2.586;2023-04-03T07:02:10;0.40;;;0.40;;
30872;SDS011;17579;42.690;2.586;2023-04-03T07:04:44;0.30;;;0.30;;
30872;SDS011;17579;42.690;2.586;2023-04-03T07:07:19;0.63;;;0.20;;
30872;SDS011;17579;42.690;2.586;2023-04-03T07:10:25;0.10;;;0.10;;
30872;SDS011;17579;42.690;2.586;2023-04-03T07:12:33;0.30;;;0.20;;
30872;SDS011;17579;42.690;2.586;2023-04-03T07:15:02;0.20;;;0.20;;
30872;SDS011;17579;42.690;2.586;2023-04-03T07:17:46;0.20;;;0.20;;
30872;SDS011;17579;42.690;2.586;2023-04-03T07:20:12;0.30;;;0.30;;
30872;SDS011;17579;42.690;2.586;2023-04-03T07:22:38;0.30;;;0.30;;
30872;SDS011;17579;42.690;2.586;2023-04-03T07:25:15;0.22;;;0.22;;
30872;SDS011;17579;42.690;2.586;2023-04-03T07:27:44;0.77;;;0.40;;
30872;SDS011;17579;42.690;2.586;2023-04-03T07:30:09;0.20;;;0.20;;
30872;SDS011;17579;42.690;2.586;2023-04-03T07:32:36;0.40;;;0.20;;
30872;SDS011;17579;42.690;2.586;2023-04-03T07:35:04;0.55;;;0.30;;
30872;SDS011;17579;42.690;2.586;2023-04-03T07:37:33;0.22;;;0.22;;
30872;SDS011;17579;42.690;2.586;2023-04-03T07:40:02;0.30;;;0.22;;
30872;SDS011;17579;42.690;2.586;2023-04-03T07:42:31;0.10;;;0.10;;
30872;SDS011;17579;42.690;2.586;2023-04-03T07:47:48;0.35;;;0.20;;
30872;SDS011;17579;42.690;2.586;2023-04-03T07:50:19;0.25;;;0.25;;
30872;SDS011;17579;42.690;2.586;2023-04-03T07:52:50;0.28;;;0.28;;
30872;SDS011;17579;42.690;2.586;2023-04-03T07:55:17;0.30;;;0.30;;
30872;SDS011;17579;42.690;2.586;2023-04-03T07:57:43;0.50;;;0.50;;
30872;SDS011;17579;42.690;2.586;2023-04-03T08:00:09;0.20;;;0.20;;
30872;SDS011;17579;42.690;2.586;2023-04-03T08:02:39;0.30;;;0.30;;
30872;SDS011;17579;42.690;2.586;2023-04-03T08:05:11;0.20;;;0.20;;
30872;SDS011;17579;42.690;2.586;2023-04-03T08:07:40;0.30;;;0.30;;
30872;SDS011;17579;42.690;2.586;2023-04-03T08:10:06;0.20;;;0.20;;
30872;SDS011;17579;42.690;2.586;2023-04-03T08:12:32;0.20;;;0.20;;
30872;SDS011;17579;42.690;2.586;2023-04-03T08:15:12;0.10;;;0.10;;
30872;SDS011;17579;42.690;2.586;2023-04-03T08:17:41;0.28;;;0.28;;
30872;SDS011;17579;42.690;2.586;2023-04-03T08:20:17;0.20;;;0.20;;
30872;SDS011;17579;42.690;2.586;2023-04-03T08:22:43;0.35;;;0.35;;
30872;SDS011;17579;42.690;2.586;2023-04-03T08:25:12;0.10;;;0.10;;
30872;SDS011;17579;42.690;2.586;2023-04-03T08:27:38;0.20;;;0.20;;
30872;SDS011;17579;42.690;2.586;2023-04-03T08:30:06;0.20;;;0.20;;
30872;SDS011;17579;42.690;2.586;2023-04-03T08:32:39;0.35;;;0.22;;
30872;SDS011;17579;42.690;2.586;2023-04-03T08:35:16;0.30;;;0.25;;
30872;SDS011;17579;42.690;2.586;2023-04-03T08:37:45;0.57;;;0.30;;
30872;SDS011;17579;42.690;2.586;2023-04-03T08:40:13;0.30;;;0.30;;
30872;SDS011;17579;42.690;2.586;2023-04-03T08:48:19;0.20;;;0.20;;
30872;SDS011;17579;42.690;2.586;2023-04-03T08:50:50;0.25;;;0.17;;
30872;SDS011;17579;42.690;2.586;2023-04-03T08:53:25;0.30;;;0.30;;
30872;SDS011;17579;42.690;2.586;2023-04-03T08:56:14;0.20;;;0.20;;
30872;SDS011;17579;42.690;2.586;2023-04-03T09:01:47;0.20;;;0.20;;
30872;SDS011;17579;42.690;2.586;2023-04-03T09:04:14;0.40;;;0.22;;
30872;SDS011;17579;42.690;2.586;2023-04-03T09:06:52;0.30;;;0.30;;
30872;SDS011;17579;42.690;2.586;2023-04-03T09:09:33;0.17;;;0.17;;
30872;SDS011;17579;42.690;2.586;2023-04-03T09:12:11;0.30;;;0.30;;
30872;SDS011;17579;42.690;2.586;2023-04-03T09:15:02;0.22;;;0.22;;
30872;SDS011;17579;42.690;2.586;2023-04-03T09:17:46;0.20;;;0.20;;
30872;SDS011;17579;42.690;2.586;2023-04-03T09:25:56;0.20;;;0.20;;
30872;SDS011;17579;42.690;2.586;2023-04-03T09:28:32;1.00;;;0.30;;
30872;SDS011;17579;42.690;2.586;2023-04-03T09:33:54;0.30;;;0.30;;
30872;SDS011;17579;42.690;2.586;2023-04-03T09:41:31;0.38;;;0.30;;
30872;SDS011;17579;42.690;2.586;2023-04-03T09:43:59;1.13;;;0.40;;
30872;SDS011;17579;42.690;2.586;2023-04-03T09:46:30;1.10;;;0.40;;
30872;SDS011;17579;42.690;2.586;2023-04-03T09:48:59;0.22;;;0.22;;
30872;SDS011;17579;42.690;2.586;2023-04-03T09:51:31;0.20;;;0.20;;
30872;SDS011;17579;42.690;2.586;2023-04-03T09:56:53;0.45;;;0.35;;
30872;SDS011;17579;42.690;2.586;2023-04-03T09:59:23;0.63;;;0.40;;
30872;SDS011;17579;42.690;2.586;2023-04-03T10:01:57;0.17;;;0.17;;
30872;SDS011;17579;42.690;2.586;2023-04-03T10:09:41;0.30;;;0.30;;
30872;SDS011;17579;42.690;2.586;2023-04-03T10:12:21;0.85;;;0.80;;
30872;SDS011;17579;42.690;2.586;2023-04-03T10:14:59;0.60;;;0.50;;
30872;SDS011;17579;42.690;2.586;2023-04-03T10:18:01;0.20;;;0.20;;
30872;SDS011;17579;42.690;2.586;2023-04-03T10:20:37;0.47;;;0.47;;
30872;SDS011;17579;42.690;2.586;2023-04-03T10:23:22;0.20;;;0.20;;
30872;SDS011;17579;42.690;2.586;2023-04-03T10:28:24;0.40;;;0.40;;
30872;SDS011;17579;42.690;2.586;2023-04-03T10:32:14;0.75;;;0.60;;
30872;SDS011;17579;42.690;2.586;2023-04-03T10:36:25;0.40;;;0.40;;
30872;SDS011;17579;42.690;2.586;2023-04-03T10:39:01;0.30;;;0.30;;
30872;SDS011;17579;42.690;2.586;2023-04-03T10:41:34;0.50;;;0.50;;
30872;SDS011;17579;42.690;2.586;2023-04-03T10:47:36;0.30;;;0.30;;
30872;SDS011;17579;42.690;2.586;2023-04-03T10:50:22;0.30;;;0.30;;
30872;SDS011;17579;42.690;2.586;2023-04-03T10:53:01;0.38;;;0.35;;
30872;SDS011;17579;42.690;2.586;2023-04-03T10:56:14;0.55;;;0.32;;
30872;SDS011;17579;42.690;2.586;2023-04-03T11:01:38;0.20;;;0.20;;
30872;SDS011;17579;42.690;2.586;2023-04-03T11:04:07;0.30;;;0.30;;
30872;SDS011;17579;42.690;2.586;2023-04-03T11:06:37;0.68;;;0.38;;
30872;SDS011;17579;42.690;2.586;2023-04-03T11:11:43;0.35;;;0.35;;
30872;SDS011;17579;42.690;2.586;2023-04-03T11:14:20;0.52;;;0.47;;
30872;SDS011;17579;42.690;2.586;2023-04-03T11:20:20;0.40;;;0.40;;
30872;SDS011;17579;42.690;2.586;2023-04-03T11:22:56;0.35;;;0.35;;
30872;SDS011;17579;42.690;2.586;2023-04-03T11:25:26;2.72;;;0.63;;
30872;SDS011;17579;42.690;2.586;2023-04-03T11:27:58;0.40;;;0.40;;
30872;SDS011;17579;42.690;2.586;2023-04-03T11:30:30;0.43;;;0.43;;
30872;SDS011;17579;42.690;2.586;2023-04-03T11:33:13;0.50;;;0.50;;
30872;SDS011;17579;42.690;2.586;2023-04-03T11:35:51;1.13;;;0.30;;
30872;SDS011;17579;42.690;2.586;2023-04-03T11:38:21;0.40;;;0.32;;
30872;SDS011;17579;42.690;2.586;2023-04-03T11:40:54;0.40;;;0.40;;
30872;SDS011;17579;42.690;2.586;2023-04-03T11:43:30;0.30;;;0.30;;
30872;SDS011;17579;42.690;2.586;2023-04-03T11:45:58;0.55;;;0.55;;
30872;SDS011;17579;42.690;2.586;2023-04-03T11:53:43;0.30;;;0.30;;
30872;SDS011;17579;42.690;2.586;2023-04-03T11:59:25;1.10;;;0.30;;
30872;SDS011;17579;42.690;2.586;2023-04-03T12:02:14;1.73;;;0.40;;
30872;SDS011;17579;42.690;2.586;2023-04-03T12:05:24;0.20;;;0.20;;
30872;SDS011;17579;42.690;2.586;2023-04-03T12:07:37;0.40;;;0.40;;
30872;SDS011;17579;42.690;2.586;2023-04-03T12:10:13;0.20;;;0.20;;
30872;SDS011;17579;42.690;2.586;2023-04-03T12:12:55;0.40;;;0.40;;
30872;SDS011;17579;42.690;2.586;2023-04-03T12:17:58;0.47;;;0.30;;
30872;SDS011;17579;42.690;2.586;2023-04-03T12:28:44;0.22;;;0.22;;
30872;SDS011;17579;42.690;2.586;2023-04-03T12:31:19;0.30;;;0.25;;
30872;SDS011;17579;42.690;2.586;2023-04-03T12:33:59;0.40;;;0.40;;
30872;SDS011;17579;42.690;2.586;2023-04-03T12:36:54;1.38;;;0.52;;
30872;SDS011;17579;42.690;2.586;2023-04-03T12:42:03;0.60;;;0.60;;
30872;SDS011;17579;42.690;2.586;2023-04-03T12:47:23;1.52;;;0.60;;
30872;SDS011;17579;42.690;2.586;2023-04-03T12:49:53;0.93;;;0.55;;
30872;SDS011;17579;42.690;2.586;2023-04-03T12:52:40;0.47;;;0.47;;
30872;SDS011;17579;42.690;2.586;2023-04-03T12:55:27;0.47;;;0.43;;
30872;SDS011;17579;42.690;2.586;2023-04-03T12:57:52;1.27;;;0.50;;
30872;SDS011;17579;42.690;2.586;2023-04-03T13:02:46;0.50;;;0.50;;
30872;SDS011;17579;42.690;2.586;2023-04-03T13:05:18;0.57;;;0.50;;
30872;SDS011;17579;42.690;2.586;2023-04-03T13:08:07;2.78;;;0.50;;
30872;SDS011;17579;42.690;2.586;2023-04-03T13:13:16;0.40;;;0.40;;
30872;SDS011;17579;42.690;2.586;2023-04-03T13:15:51;0.47;;;0.30;;
30872;SDS011;17579;42.690;2.586;2023-04-03T13:20:45;0.40;;;0.40;;
30872;SDS011;17579;42.690;2.586;2023-04-03T13:23:17;0.32;;;0.32;;
30872;SDS011;17579;42.690;2.586;2023-04-03T13:25:48;0.50;;;0.50;;
30872;SDS011;17579;42.690;2.586;2023-04-03T13:28:19;0.40;;;0.40;;
30872;SDS011;17579;42.690;2.586;2023-04-03T13:33:35;0.55;;;0.35;;
30872;SDS011;17579;42.690;2.586;2023-04-03T13:36:04;0.30;;;0.30;;
30872;SDS011;17579;42.690;2.586;2023-04-03T13:46:39;0.38;;;0.38;;
30872;SDS011;17579;42.690;2.586;2023-04-03T13:51:57;0.30;;;0.30;;
30872;SDS011;17579;42.690;2.586;2023-04-03T13:54:25;0.50;;;0.50;;
30872;SDS011;17579;42.690;2.586;2023-04-03T13:56:59;0.60;;;0.50;;
30872;SDS011;17579;42.690;2.586;2023-04-03T13:59:29;1.27;;;0.60;;
30872;SDS011;17579;42.690;2.586;2023-04-03T14:02:17;0.32;;;0.32;;
30872;SDS011;17579;42.690;2.586;2023-04-03T14:04:48;1.45;;;0.30;;
30872;SDS011;17579;42.690;2.586;2023-04-03T14:07:23;0.45;;;0.45;;
30872;SDS011;17579;42.690;2.586;2023-04-03T14:09:52;0.32;;;0.32;;
30872;SDS011;17579;42.690;2.586;2023-04-03T14:15:06;0.30;;;0.30;;
30872;SDS011;17579;42.690;2.586;2023-04-03T14:17:44;0.30;;;0.30;;
30872;SDS011;17579;42.690;2.586;2023-04-03T14:20:28;0.60;;;0.40;;
30872;SDS011;17579;42.690;2.586;2023-04-03T14:22:54;0.30;;;0.30;;
30872;SDS011;17579;42.690;2.586;2023-04-03T14:25:23;0.80;;;0.40;;
30872;SDS011;17579;42.690;2.586;2023-04-03T14:27:51;0.35;;;0.35;;
30872;SDS011;17579;42.690;2.586;2023-04-03T14:30:25;0.40;;;0.40;;
30872;SDS011;17579;42.690;2.586;2023-04-03T14:32:53;0.40;;;0.40;;
30872;SDS011;17579;42.690;2.586;2023-04-03T14:35:22;0.40;;;0.40;;
30872;SDS011;17579;42.690;2.586;2023-04-03T14:38:20;0.40;;;0.40;;
30872;SDS011;17579;42.690;2.586;2023-04-03T14:40:49;0.45;;;0.45;;
30872;SDS011;17579;42.690;2.586;2023-04-03T14:43:15;0.75;;;0.50;;
30872;SDS011;17579;42.690;2.586;2023-04-03T14:45:46;0.38;;;0.38;;
30872;SDS011;17579;42.690;2.586;2023-04-03T14:48:18;0.50;;;0.50;;
30872;SDS011;17579;42.690;2.586;2023-04-03T14:50:49;0.40;;;0.40;;
30872;SDS011;17579;42.690;2.586;2023-04-03T14:53:22;0.40;;;0.40;;
30872;SDS011;17579;42.690;2.586;2023-04-03T14:55:51;0.73;;;0.50;;
30872;SDS011;17579;42.690;2.586;2023-04-03T14:58:20;0.40;;;0.40;;
30872;SDS011;17579;42.690;2.586;2023-04-03T15:00:48;0.30;;;0.30;;
30872;SDS011;17579;42.690;2.586;2023-04-03T15:03:15;0.30;;;0.30;;
30872;SDS011;17579;42.690;2.586;2023-04-03T15:05:43;0.30;;;0.30;;
30872;SDS011;17579;42.690;2.586;2023-04-03T15:08:23;0.43;;;0.43;;
30872;SDS011;17579;42.690;2.586;2023-04-03T15:10:54;0.30;;;0.30;;
30872;SDS011;17579;42.690;2.586;2023-04-03T15:13:20;0.50;;;0.50;;
30872;SDS011;17579;42.690;2.586;2023-04-03T15:15:47;0.40;;;0.40;;
30872;SDS011;17579;42.690;2.586;2023-04-03T15:18:15;0.50;;;0.50;;
30872;SDS011;17579;42.690;2.586;2023-04-03T15:20:51;0.50;;;0.50;;
30872;SDS011;17579;42.690;2.586;2023-04-03T15:23:18;0.40;;;0.40;;
30872;SDS011;17579;42.690;2.586;2023-04-03T15:25:44;0.50;;;0.50;;
30872;SDS011;17579;42.690;2.586;2023-04-03T15:28:17;0.60;;;0.60;;
30872;SDS011;17579;42.690;2.586;2023-04-03T15:30:46;0.40;;;0.40;;
30872;SDS011;17579;42.690;2.586;2023-04-03T15:33:12;1.10;;;0.40;;
30872;SDS011;17579;42.690;2.586;2023-04-03T15:35:41;1.55;;;0.63;;
30872;SDS011;17579;42.690;2.586;2023-04-03T15:38:14;0.40;;;0.40;;
30872;SDS011;17579;42.690;2.586;2023-04-03T15:40:51;0.50;;;0.50;;
30872;SDS011;17579;42.690;2.586;2023-04-03T15:43:20;0.52;;;0.52;;
30872;SDS011;17579;42.690;2.586;2023-04-03T15:45:46;0.47;;;0.47;;
30872;SDS011;17579;42.690;2.586;2023-04-03T15:48:23;0.50;;;0.50;;
30872;SDS011;17579;42.690;2.586;2023-04-03T15:50:58;0.70;;;0.70;;
30872;SDS011;17579;42.690;2.586;2023-04-03T15:53:37;0.75;;;0.45;;
30872;SDS011;17579;42.690;2.586;2023-04-03T15:56:03;1.88;;;0.57;;
30872;SDS011;17579;42.690;2.586;2023-04-03T15:58:33;0.50;;;0.50;;
30872;SDS011;17579;42.690;2.586;2023-04-03T16:01:09;0.60;;;0.60;;
30872;SDS011;17579;42.690;2.586;2023-04-03T16:03:36;0.47;;;0.47;;
30872;SDS011;17579;42.690;2.586;2023-04-03T16:06:13;0.50;;;0.50;;
30872;SDS011;17579;42.690;2.586;2023-04-03T16:08:42;0.60;;;0.60;;
30872;SDS011;17579;42.690;2.586;2023-04-03T16:11:17;2.13;;;0.50;;
30872;SDS011;17579;42.690;2.586;2023-04-03T16:13:42;0.50;;;0.50;;
30872;SDS011;17579;42.690;2.586;2023-04-03T16:19:06;0.65;;;0.60;;
30872;SDS011;17579;42.690;2.586;2023-04-03T16:21:50;0.38;;;0.38;;
30872;SDS011;17579;42.690;2.586;2023-04-03T16:24:28;0.75;;;0.60;;
30872;SDS011;17579;42.690;2.586;2023-04-03T16:27:03;7.38;;;0.55;;
30872;SDS011;17579;42.690;2.586;2023-04-03T16:29:29;0.50;;;0.50;;
30872;SDS011;17579;42.690;2.586;2023-04-03T16:32:08;0.93;;;0.55;;
30872;SDS011;17579;42.690;2.586;2023-04-03T16:34:37;0.57;;;0.57;;
30872;SDS011;17579;42.690;2.586;2023-04-03T16:37:05;1.08;;;0.47;;
30872;SDS011;17579;42.690;2.586;2023-04-03T16:39:34;0.40;;;0.40;;
30872;SDS011;17579;42.690;2.586;2023-04-03T16:42:02;0.40;;;0.40;;
30872;SDS011;17579;42.690;2.586;2023-04-03T16:44:38;0.73;;;0.60;;
30872;SDS011;17579;42.690;2.586;2023-04-03T16:47:07;0.95;;;0.60;;
30872;SDS011;17579;42.690;2.586;2023-04-03T16:49:38;0.60;;;0.60;;
30872;SDS011;17579;42.690;2.586;2023-04-03T16:52:04;0.50;;;0.50;;
30872;SDS011;17579;42.690;2.586;2023-04-03T16:54:31;0.80;;;0.57;;
30872;SDS011;17579;42.690;2.586;2023-04-03T16:56:57;0.68;;;0.60;;
30872;SDS011;17579;42.690;2.586;2023-04-03T16:59:26;1.15;;;0.55;;
30872;SDS011;17579;42.690;2.586;2023-04-03T17:02:01;0.63;;;0.63;;
30872;SDS011;17579;42.690;2.586;2023-04-03T17:04:27;0.40;;;0.40;;
30872;SDS011;17579;42.690;2.586;2023-04-03T17:06:58;0.50;;;0.50;;
30872;SDS011;17579;42.690;2.586;2023-04-03T17:09:46;0.32;;;0.32;;
30872;SDS011;17579;42.690;2.586;2023-04-03T17:12:12;0.57;;;0.57;;